sensor_id;sensor_type;location;lat;lon;timestamp;pressure;altitude;pressure_sealevel;temperature;humidity
73105;BME280;61296;50.526;30.792;2023-07-29T00:12:10;98783.75;;;18.36;62.85
73105;BME280;61296;50.526;30.792;2023-07-29T00:27:30;98784.53;;;18.37;63.24
73105;BME280;61296;50.526;30.792;2023-07-29T00:42:49;98787.41;;;18.21;66.55
73105;BME280;61296;50.526;30.792;2023-07-29T00:58:12;98708.38;;;17.38;69.35
73105;BME280;61296;50.526;30.792;2023-07-29T01:28:53;98745.56;;;17.15;71.83
73105;BME280;61296;50.526;30.792;2023-07-29T01:44:13;98739.47;;;17.20;72.62
73105;BME280;61296;50.526;30.792;2023-07-29T01:59:35;98741.78;;;17.09;73.86
73105;BME280;61296;50.526;30.792;2023-07-29T02:14:54;98733.19;;;17.03;75.26
73105;BME280;61296;50.526;30.792;2023-07-29T02:30:14;98731.63;;;17.02;75.79
73105;BME280;61296;50.526;30.792;2023-07-29T02:45:33;98741.41;;;17.07;76.05
73105;BME280;61296;50.526;30.792;2023-07-29T03:00:52;98760.66;;;17.14;76.92
73105;BME280;61296;50.526;30.792;2023-07-29T03:32:03;98732.75;;;17.05;77.23
73105;BME280;61296;50.526;30.792;2023-07-29T03:47:28;98847.63;;;18.14;76.25
73105;BME280;61296;50.526;30.792;2023-07-29T04:02:49;98778.91;;;17.73;76.01
73105;BME280;61296;50.526;30.792;2023-07-29T04:18:10;98827.91;;;18.09;75.98
73105;BME280;61296;50.526;30.792;2023-07-29T04:33:30;98807.09;;;18.01;75.74
73105;BME280;61296;50.526;30.792;2023-07-29T04:48:52;98825.38;;;18.78;74.42
73105;BME280;61296;50.526;30.792;2023-07-29T05:04:12;98797.47;;;20.04;68.22
73105;BME280;61296;50.526;30.792;2023-07-29T05:19:31;98848.34;;;20.70;66.35
73105;BME280;61296;50.526;30.792;2023-07-29T05:34:51;98821.63;;;21.55;62.45
73105;BME280;61296;50.526;30.792;2023-07-29T05:50:10;98813.84;;;21.68;61.22
73105;BME280;61296;50.526;30.792;2023-07-29T06:05:30;98778.88;;;21.09;62.01
73105;BME280;61296;50.526;30.792;2023-07-29T06:20:51;98777.31;;;21.08;62.79
73105;BME280;61296;50.526;30.792;2023-07-29T06:36:13;98883.47;;;21.57;64.27
73105;BME280;61296;50.526;30.792;2023-07-29T06:51:32;98830.66;;;21.59;62.34
73105;BME280;61296;50.526;30.792;2023-07-29T07:06:54;98811.94;;;22.11;61.59
73105;BME280;61296;50.526;30.792;2023-07-29T07:22:14;98840.09;;;22.50;60.93
73105;BME280;61296;50.526;30.792;2023-07-29T07:37:35;98859.94;;;22.70;61.69
73105;BME280;61296;50.526;30.792;2023-07-29T07:52:55;98756.75;;;22.59;59.80
73105;BME280;61296;50.526;30.792;2023-07-29T08:08:15;98791.56;;;23.00;59.26
73105;BME280;61296;50.526;30.792;2023-07-29T08:23:35;98821.00;;;23.44;58.61
73105;BME280;61296;50.526;30.792;2023-07-29T08:38:55;98830.44;;;23.55;59.11
73105;BME280;61296;50.526;30.792;2023-07-29T08:54:15;98804.94;;;23.29;59.73
73105;BME280;61296;50.526;30.792;2023-07-29T09:09:36;98852.88;;;23.79;59.18
73105;BME280;61296;50.526;30.792;2023-07-29T09:24:57;98823.63;;;23.86;59.37
73105;BME280;61296;50.526;30.792;2023-07-29T09:40:17;98746.66;;;23.78;58.04
73105;BME280;61296;50.526;30.792;2023-07-29T09:55:37;98784.13;;;24.34;56.71
73105;BME280;61296;50.526;30.792;2023-07-29T10:10:59;98751.25;;;24.25;57.27
73105;BME280;61296;50.526;30.792;2023-07-29T10:26:20;98762.91;;;24.33;56.12
73105;BME280;61296;50.526;30.792;2023-07-29T10:42:02;98841.88;;;24.85;56.96
73105;BME280;61296;50.526;30.792;2023-07-29T10:57:33;98759.50;;;24.29;56.39
73105;BME280;61296;50.526;30.792;2023-07-29T11:12:53;98719.13;;;24.61;55.71
73105;BME280;61296;50.526;30.792;2023-07-29T11:28:14;98754.50;;;25.09;52.00
73105;BME280;61296;50.526;30.792;2023-07-29T11:43:37;98708.22;;;25.10;51.49
73105;BME280;61296;50.526;30.792;2023-07-29T11:58:57;98807.19;;;26.01;50.92
73105;BME280;61296;50.526;30.792;2023-07-29T12:14:17;98699.19;;;25.52;50.64
73105;BME280;61296;50.526;30.792;2023-07-29T12:29:40;98744.78;;;25.56;50.84
73105;BME280;61296;50.526;30.792;2023-07-29T12:45:00;98783.91;;;25.08;55.19
73105;BME280;61296;50.526;30.792;2023-07-29T13:00:19;98737.84;;;25.05;51.92
73105;BME280;61296;50.526;30.792;2023-07-29T13:15:39;98771.66;;;25.11;54.07
73105;BME280;61296;50.526;30.792;2023-07-29T13:30:58;98710.34;;;24.74;52.75
73105;BME280;61296;50.526;30.792;2023-07-29T13:46:18;98725.53;;;24.82;52.22
73105;BME280;61296;50.526;30.792;2023-07-29T14:01:40;98724.31;;;24.68;50.57
73105;BME280;61296;50.526;30.792;2023-07-29T14:16:59;98729.22;;;24.53;49.92
73105;BME280;61296;50.526;30.792;2023-07-29T14:32:19;98834.69;;;25.19;48.18
73105;BME280;61296;50.526;30.792;2023-07-29T14:47:38;98772.88;;;24.69;47.63
73105;BME280;61296;50.526;30.792;2023-07-29T15:02:58;98794.28;;;24.81;45.58
73105;BME280;61296;50.526;30.792;2023-07-29T15:18:18;98776.41;;;24.84;46.24
73105;BME280;61296;50.526;30.792;2023-07-29T15:33:38;98784.28;;;24.45;47.46
73105;BME280;61296;50.526;30.792;2023-07-29T15:48:57;98803.69;;;24.28;46.62
73105;BME280;61296;50.526;30.792;2023-07-29T16:04:18;98813.19;;;24.01;48.51
73105;BME280;61296;50.526;30.792;2023-07-29T16:19:55;98850.56;;;24.22;49.27
73105;BME280;61296;50.526;30.792;2023-07-29T16:35:14;98896.09;;;24.26;50.31
73105;BME280;61296;50.526;30.792;2023-07-29T16:50:34;98830.22;;;23.68;50.48
73105;BME280;61296;50.526;30.792;2023-07-29T17:05:54;98832.44;;;23.55;51.24
73105;BME280;61296;50.526;30.792;2023-07-29T17:21:15;98878.28;;;23.61;52.76
73105;BME280;61296;50.526;30.792;2023-07-29T17:36:35;98824.97;;;22.89;54.47
73105;BME280;61296;50.526;30.792;2023-07-29T17:51:54;98934.06;;;23.11;56.12
73105;BME280;61296;50.526;30.792;2023-07-29T18:07:14;98882.16;;;22.40;57.10
73105;BME280;61296;50.526;30.792;2023-07-29T18:22:34;98881.44;;;21.85;59.30
73105;BME280;61296;50.526;30.792;2023-07-29T18:37:53;98917.69;;;21.61;61.61
73105;BME280;61296;50.526;30.792;2023-07-29T18:53:18;98881.56;;;21.17;62.18
73105;BME280;61296;50.526;30.792;2023-07-29T19:08:37;98993.84;;;21.65;63.67
73105;BME280;61296;50.526;30.792;2023-07-29T19:23:57;98997.84;;;21.46;63.97
73105;BME280;61296;50.526;30.792;2023-07-29T19:39:16;98958.44;;;20.82;64.48
73105;BME280;61296;50.526;30.792;2023-07-29T19:54:36;98982.34;;;20.83;64.56
73105;BME280;61296;50.526;30.792;2023-07-29T20:09:55;98971.53;;;20.63;64.75
73105;BME280;61296;50.526;30.792;2023-07-29T20:25:15;98942.75;;;20.44;64.99
73105;BME280;61296;50.526;30.792;2023-07-29T20:40:35;98957.84;;;20.34;65.44
73105;BME280;61296;50.526;30.792;2023-07-29T20:55:54;98963.22;;;20.28;65.87
73105;BME280;61296;50.526;30.792;2023-07-29T21:11:15;98925.63;;;19.98;66.55
73105;BME280;61296;50.526;30.792;2023-07-29T21:26:35;98991.41;;;20.21;66.88
73105;BME280;61296;50.526;30.792;2023-07-29T21:41:55;98966.41;;;19.96;66.72
73105;BME280;61296;50.526;30.792;2023-07-29T21:57:17;98980.59;;;19.88;67.05
73105;BME280;61296;50.526;30.792;2023-07-29T22:12:39;98978.44;;;19.71;68.02
73105;BME280;61296;50.526;30.792;2023-07-29T22:28:01;98970.41;;;19.47;68.98
73105;BME280;61296;50.526;30.792;2023-07-29T22:43:21;99021.97;;;19.55;70.08
73105;BME280;61296;50.526;30.792;2023-07-29T22:58:42;99055.63;;;19.48;70.91
73105;BME280;61296;50.526;30.792;2023-07-29T23:14:03;99077.28;;;19.44;72.23
73105;BME280;61296;50.526;30.792;2023-07-29T23:29:22;99084.97;;;19.27;73.32
73105;BME280;61296;50.526;30.792;2023-07-29T23:44:41;99106.19;;;18.96;74.90
